Weather at Albuquerque International Sunport

Public forecast

Using degrees Fahrenheit for public forecast. Weather courtesy of forecast.io.

Current aviation weather report (METAR) for Albuquerque International Sunport

Retrieved 2022/08/15 06:52 UTC (32 minutes ago):

KABQ 150652Z 18005KT 10SM FEW100 SCT200 22/12 A3018 RMK AO2 SLP128 T02220117 403280194

Aviation forecast (TAF) for Albuquerque International Sunport

Retrieved 2022/08/15 06:27 UTC (57 minutes ago):

TAF KABQ 150524Z 1506/1606 12006KT P6SM SCT120 SCT200 FM151000 VRB06KT P6SM FEW120 SCT200 FM151800 21006KT P6SM SCT080 FM152200 19012KT P6SM BKN090 TEMPO 1523/1603 VRB15G25KT FM160300 02006KT P6SM VCSH BKN080